Composition du bureau

Rédigé par Admin - 23 février 2015


Suite à l’Assemblée Générale Ordinaire et à l’élection des tiers sortants et de deux nouveaux candidats, une réunion de bureau a eu lieu afin de déterminer l’attribution des fonctions.

Le bureau est désormais composé de :

Président : Michel Richez

Vice-Président : Jean-Pierre Moreau

Trésorier : Thierry Mauberger

Trésorier adjoint : Christophe Giansanti (Responsable bar)

Secrétaire : Ghislaine Canny

Secrétaire adjoint : Denis Joseph

Relation ANEG : Christian Raffaitin

ULM : Yves Point

Membres : Serge Briant, François Bureau, Jean Luc Cerceau, Philippe Fernandes, Marjan Goral, Sylvette Plumé


Classé dans : Actualités - Mots clés : aucun

A propos de l'auteur:

Pilote et webmaster de ce site.

Écrire un commentaire

Quelle est la quatrième lettre du mot vknth ? : 



Webcam :

Nuit aéronautique

20 Jan 2018

Heure locale,
pour LFDL uniquement.

Lever du soleil aéronautique :08:08
Lever du soleil :08:38
Coucher du soleil :17:43
Coucher du soleil aéronautique :18:13

Metar

LFBI :
2018/01/20 19:00
LFBI 201900Z AUTO 27015KT 9999 OVC013 12/11 Q1011 TEMPO 27015G30KT 3000 RA OVC005
LFBI :
Poitiers, France (LFBI) 46-35N 000-19E 120M
Jan 20, 2018 - 02:00 PM EST / 2018.01.20 1900 UTC
Wind: from the W (270 degrees) at 17 MPH (15 KT):0
Visibility: greater than 7 mile(s):0
Sky conditions: overcast
Temperature: 53 F (12 C)
Dew Point: 51 F (11 C)
Relative Humidity: 93%
Pressure (altimeter): 29.85 in. Hg (1011 hPa)
ob: LFBI 201900Z AUTO 27015KT 9999 OVC013 12/11 Q1011 TEMPO 27015G30KT 3000 RA OVC005
cycle: 19

Afficher le metar d'une autre station :
Code OACI :

Aéroclub de Loudun


Bellevue
86200 Loudun

05-49-98-12-81



agrandir le plan

Newsletter

Mon e-mail :